sensor_id;sensor_type;location;lat;lon;timestamp;P1;durP1;ratioP1;P2;durP2;ratioP2
16665;SDS011;8446;50.998;6.250;2023-06-26T00:00:08;8.83;;;7.73;;
16665;SDS011;8446;50.998;6.250;2023-06-26T00:02:36;8.40;;;7.47;;
16665;SDS011;8446;50.998;6.250;2023-06-26T00:05:03;11.73;;;7.83;;
16665;SDS011;8446;50.998;6.250;2023-06-26T00:07:30;11.80;;;7.40;;
16665;SDS011;8446;50.998;6.250;2023-06-26T00:09:59;11.70;;;7.03;;
16665;SDS011;8446;50.998;6.250;2023-06-26T00:12:26;7.50;;;6.70;;
16665;SDS011;8446;50.998;6.250;2023-06-26T00:14:53;9.73;;;7.60;;
16665;SDS011;8446;50.998;6.250;2023-06-26T00:17:21;13.60;;;7.67;;
16665;SDS011;8446;50.998;6.250;2023-06-26T00:19:48;9.10;;;7.20;;
16665;SDS011;8446;50.998;6.250;2023-06-26T00:22:16;13.20;;;7.57;;
16665;SDS011;8446;50.998;6.250;2023-06-26T00:24:43;10.87;;;8.20;;
16665;SDS011;8446;50.998;6.250;2023-06-26T00:27:10;16.27;;;8.50;;
16665;SDS011;8446;50.998;6.250;2023-06-26T00:29:37;9.20;;;7.47;;
16665;SDS011;8446;50.998;6.250;2023-06-26T00:32:05;19.00;;;7.47;;
16665;SDS011;8446;50.998;6.250;2023-06-26T00:34:34;13.83;;;7.87;;
16665;SDS011;8446;50.998;6.250;2023-06-26T00:37:01;13.20;;;6.50;;
16665;SDS011;8446;50.998;6.250;2023-06-26T00:39:29;14.13;;;7.70;;
16665;SDS011;8446;50.998;6.250;2023-06-26T00:41:56;8.73;;;6.23;;
16665;SDS011;8446;50.998;6.250;2023-06-26T00:44:22;8.13;;;6.57;;
16665;SDS011;8446;50.998;6.250;2023-06-26T00:46:49;13.93;;;6.90;;
16665;SDS011;8446;50.998;6.250;2023-06-26T00:49:19;13.13;;;7.07;;
16665;SDS011;8446;50.998;6.250;2023-06-26T00:51:48;9.77;;;7.10;;
16665;SDS011;8446;50.998;6.250;2023-06-26T00:54:15;10.73;;;7.30;;
16665;SDS011;8446;50.998;6.250;2023-06-26T00:56:45;12.07;;;6.23;;
16665;SDS011;8446;50.998;6.250;2023-06-26T00:59:13;12.67;;;7.37;;
16665;SDS011;8446;50.998;6.250;2023-06-26T01:01:40;7.70;;;6.13;;
16665;SDS011;8446;50.998;6.250;2023-06-26T01:04:07;15.50;;;7.37;;
16665;SDS011;8446;50.998;6.250;2023-06-26T01:06:42;13.10;;;6.67;;
16665;SDS011;8446;50.998;6.250;2023-06-26T01:09:15;9.17;;;6.87;;
16665;SDS011;8446;50.998;6.250;2023-06-26T01:11:43;12.07;;;7.10;;
16665;SDS011;8446;50.998;6.250;2023-06-26T01:14:10;12.03;;;7.37;;
16665;SDS011;8446;50.998;6.250;2023-06-26T01:16:37;13.07;;;6.73;;
16665;SDS011;8446;50.998;6.250;2023-06-26T01:19:06;9.47;;;6.43;;
16665;SDS011;8446;50.998;6.250;2023-06-26T01:21:37;8.30;;;5.60;;
16665;SDS011;8446;50.998;6.250;2023-06-26T01:24:09;7.60;;;6.40;;
16665;SDS011;8446;50.998;6.250;2023-06-26T01:26:46;8.17;;;6.70;;
16665;SDS011;8446;50.998;6.250;2023-06-26T01:29:16;11.10;;;6.57;;
16665;SDS011;8446;50.998;6.250;2023-06-26T01:31:44;7.80;;;5.50;;
16665;SDS011;8446;50.998;6.250;2023-06-26T01:34:14;9.90;;;6.00;;
16665;SDS011;8446;50.998;6.250;2023-06-26T01:36:43;8.17;;;5.97;;
16665;SDS011;8446;50.998;6.250;2023-06-26T01:39:10;7.60;;;6.47;;
16665;SDS011;8446;50.998;6.250;2023-06-26T01:41:38;10.43;;;6.10;;
16665;SDS011;8446;50.998;6.250;2023-06-26T01:44:11;11.50;;;6.17;;
16665;SDS011;8446;50.998;6.250;2023-06-26T01:46:49;15.10;;;5.93;;
16665;SDS011;8446;50.998;6.250;2023-06-26T01:49:25;9.37;;;5.43;;
16665;SDS011;8446;50.998;6.250;2023-06-26T01:52:03;7.57;;;5.77;;
16665;SDS011;8446;50.998;6.250;2023-06-26T01:54:36;7.87;;;5.70;;
16665;SDS011;8446;50.998;6.250;2023-06-26T01:57:08;7.63;;;6.30;;
16665;SDS011;8446;50.998;6.250;2023-06-26T01:59:37;10.07;;;7.07;;
16665;SDS011;8446;50.998;6.250;2023-06-26T02:02:06;8.87;;;6.77;;
16665;SDS011;8446;50.998;6.250;2023-06-26T02:04:33;10.83;;;6.53;;
16665;SDS011;8446;50.998;6.250;2023-06-26T02:07:00;8.37;;;6.90;;
16665;SDS011;8446;50.998;6.250;2023-06-26T02:09:27;18.53;;;6.67;;
16665;SDS011;8446;50.998;6.250;2023-06-26T02:11:54;10.00;;;6.67;;
16665;SDS011;8446;50.998;6.250;2023-06-26T02:14:21;17.10;;;5.87;;
16665;SDS011;8446;50.998;6.250;2023-06-26T02:16:49;11.30;;;6.27;;
16665;SDS011;8446;50.998;6.250;2023-06-26T02:19:16;11.87;;;7.73;;
16665;SDS011;8446;50.998;6.250;2023-06-26T02:21:46;10.90;;;6.27;;
16665;SDS011;8446;50.998;6.250;2023-06-26T02:24:13;8.53;;;6.40;;
16665;SDS011;8446;50.998;6.250;2023-06-26T02:26:40;8.50;;;6.67;;
16665;SDS011;8446;50.998;6.250;2023-06-26T02:29:07;10.50;;;6.60;;
16665;SDS011;8446;50.998;6.250;2023-06-26T02:31:34;7.50;;;5.80;;
16665;SDS011;8446;50.998;6.250;2023-06-26T02:34:02;6.97;;;5.90;;
16665;SDS011;8446;50.998;6.250;2023-06-26T02:36:29;10.93;;;6.67;;
16665;SDS011;8446;50.998;6.250;2023-06-26T02:38:56;11.60;;;6.73;;
16665;SDS011;8446;50.998;6.250;2023-06-26T02:41:23;8.60;;;7.00;;
16665;SDS011;8446;50.998;6.250;2023-06-26T02:43:50;9.70;;;7.07;;
16665;SDS011;8446;50.998;6.250;2023-06-26T02:46:17;10.10;;;5.70;;
16665;SDS011;8446;50.998;6.250;2023-06-26T02:48:43;9.87;;;6.60;;
16665;SDS011;8446;50.998;6.250;2023-06-26T02:51:12;10.40;;;6.00;;
16665;SDS011;8446;50.998;6.250;2023-06-26T02:53:38;7.83;;;6.27;;
16665;SDS011;8446;50.998;6.250;2023-06-26T02:56:05;8.93;;;5.67;;
16665;SDS011;8446;50.998;6.250;2023-06-26T02:58:32;7.40;;;5.17;;
16665;SDS011;8446;50.998;6.250;2023-06-26T03:00:59;9.90;;;5.70;;
16665;SDS011;8446;50.998;6.250;2023-06-26T03:03:26;5.57;;;5.00;;
16665;SDS011;8446;50.998;6.250;2023-06-26T03:05:53;7.47;;;6.10;;
16665;SDS011;8446;50.998;6.250;2023-06-26T03:08:21;8.47;;;5.57;;
16665;SDS011;8446;50.998;6.250;2023-06-26T03:10:48;10.67;;;6.37;;
16665;SDS011;8446;50.998;6.250;2023-06-26T03:13:14;7.10;;;5.80;;
16665;SDS011;8446;50.998;6.250;2023-06-26T03:15:41;9.97;;;6.40;;
16665;SDS011;8446;50.998;6.250;2023-06-26T03:18:08;12.93;;;5.87;;
16665;SDS011;8446;50.998;6.250;2023-06-26T03:20:35;6.40;;;5.80;;
16665;SDS011;8446;50.998;6.250;2023-06-26T03:23:02;8.10;;;6.20;;
16665;SDS011;8446;50.998;6.250;2023-06-26T03:25:30;8.67;;;5.67;;
16665;SDS011;8446;50.998;6.250;2023-06-26T03:27:57;8.47;;;5.57;;
16665;SDS011;8446;50.998;6.250;2023-06-26T03:30:24;11.87;;;5.80;;
16665;SDS011;8446;50.998;6.250;2023-06-26T03:32:51;8.90;;;7.00;;
16665;SDS011;8446;50.998;6.250;2023-06-26T03:35:18;8.77;;;6.10;;
16665;SDS011;8446;50.998;6.250;2023-06-26T03:37:45;7.97;;;6.13;;
16665;SDS011;8446;50.998;6.250;2023-06-26T03:40:12;11.70;;;6.50;;
16665;SDS011;8446;50.998;6.250;2023-06-26T03:42:40;11.07;;;5.90;;
16665;SDS011;8446;50.998;6.250;2023-06-26T03:45:07;10.40;;;5.83;;
16665;SDS011;8446;50.998;6.250;2023-06-26T03:47:34;7.37;;;5.20;;
16665;SDS011;8446;50.998;6.250;2023-06-26T03:50:01;7.70;;;5.57;;
16665;SDS011;8446;50.998;6.250;2023-06-26T03:52:28;9.20;;;5.23;;
16665;SDS011;8446;50.998;6.250;2023-06-26T03:54:55;7.47;;;5.50;;
16665;SDS011;8446;50.998;6.250;2023-06-26T03:57:23;7.03;;;5.43;;
16665;SDS011;8446;50.998;6.250;2023-06-26T03:59:51;7.63;;;5.13;;
16665;SDS011;8446;50.998;6.250;2023-06-26T04:02:18;6.77;;;4.20;;
16665;SDS011;8446;50.998;6.250;2023-06-26T04:04:45;8.03;;;5.03;;
16665;SDS011;8446;50.998;6.250;2023-06-26T04:07:12;8.70;;;4.80;;
16665;SDS011;8446;50.998;6.250;2023-06-26T04:09:39;10.93;;;5.57;;
16665;SDS011;8446;50.998;6.250;2023-06-26T04:12:06;5.90;;;4.23;;
16665;SDS011;8446;50.998;6.250;2023-06-26T04:14:33;6.60;;;4.20;;
16665;SDS011;8446;50.998;6.250;2023-06-26T04:17:01;6.63;;;4.43;;
16665;SDS011;8446;50.998;6.250;2023-06-26T04:19:28;7.80;;;4.60;;
16665;SDS011;8446;50.998;6.250;2023-06-26T04:21:55;6.40;;;4.93;;
16665;SDS011;8446;50.998;6.250;2023-06-26T04:24:22;8.67;;;4.87;;
16665;SDS011;8446;50.998;6.250;2023-06-26T04:26:49;12.20;;;5.00;;
16665;SDS011;8446;50.998;6.250;2023-06-26T04:29:16;7.83;;;4.37;;
16665;SDS011;8446;50.998;6.250;2023-06-26T04:31:43;5.70;;;4.73;;
16665;SDS011;8446;50.998;6.250;2023-06-26T04:34:13;6.40;;;4.73;;
16665;SDS011;8446;50.998;6.250;2023-06-26T04:36:39;9.03;;;5.30;;
16665;SDS011;8446;50.998;6.250;2023-06-26T04:39:11;8.03;;;4.80;;
16665;SDS011;8446;50.998;6.250;2023-06-26T04:41:39;5.10;;;4.13;;
16665;SDS011;8446;50.998;6.250;2023-06-26T04:44:06;20.93;;;5.60;;
16665;SDS011;8446;50.998;6.250;2023-06-26T04:46:33;7.90;;;4.40;;
16665;SDS011;8446;50.998;6.250;2023-06-26T04:49:00;8.97;;;5.30;;
16665;SDS011;8446;50.998;6.250;2023-06-26T04:51:29;6.07;;;4.70;;
16665;SDS011;8446;50.998;6.250;2023-06-26T04:53:56;8.47;;;4.47;;
16665;SDS011;8446;50.998;6.250;2023-06-26T04:56:23;7.60;;;4.70;;
16665;SDS011;8446;50.998;6.250;2023-06-26T04:58:50;9.90;;;4.80;;
16665;SDS011;8446;50.998;6.250;2023-06-26T05:01:17;11.10;;;4.60;;
16665;SDS011;8446;50.998;6.250;2023-06-26T05:03:43;8.60;;;4.57;;
16665;SDS011;8446;50.998;6.250;2023-06-26T05:06:10;7.23;;;4.20;;
16665;SDS011;8446;50.998;6.250;2023-06-26T05:08:39;9.70;;;4.37;;
16665;SDS011;8446;50.998;6.250;2023-06-26T05:11:06;9.13;;;5.97;;
16665;SDS011;8446;50.998;6.250;2023-06-26T05:13:32;10.53;;;5.03;;
16665;SDS011;8446;50.998;6.250;2023-06-26T05:15:59;7.63;;;4.60;;
16665;SDS011;8446;50.998;6.250;2023-06-26T05:18:26;9.07;;;4.70;;
16665;SDS011;8446;50.998;6.250;2023-06-26T05:20:54;13.57;;;4.63;;
16665;SDS011;8446;50.998;6.250;2023-06-26T05:23:21;15.50;;;4.00;;
16665;SDS011;8446;50.998;6.250;2023-06-26T05:25:53;14.80;;;4.60;;
16665;SDS011;8446;50.998;6.250;2023-06-26T05:28:20;6.40;;;4.00;;
16665;SDS011;8446;50.998;6.250;2023-06-26T05:30:49;7.17;;;3.40;;
16665;SDS011;8446;50.998;6.250;2023-06-26T05:33:17;6.77;;;4.50;;
16665;SDS011;8446;50.998;6.250;2023-06-26T05:35:45;4.37;;;3.20;;
16665;SDS011;8446;50.998;6.250;2023-06-26T05:38:12;11.57;;;4.40;;
16665;SDS011;8446;50.998;6.250;2023-06-26T05:40:40;12.07;;;4.23;;
16665;SDS011;8446;50.998;6.250;2023-06-26T05:43:09;10.03;;;3.93;;
16665;SDS011;8446;50.998;6.250;2023-06-26T05:45:36;8.33;;;4.00;;
16665;SDS011;8446;50.998;6.250;2023-06-26T05:48:04;10.87;;;4.47;;
16665;SDS011;8446;50.998;6.250;2023-06-26T05:50:31;7.00;;;4.17;;
16665;SDS011;8446;50.998;6.250;2023-06-26T05:52:59;12.53;;;4.07;;
16665;SDS011;8446;50.998;6.250;2023-06-26T05:55:28;12.13;;;4.10;;
16665;SDS011;8446;50.998;6.250;2023-06-26T05:57:55;13.70;;;4.30;;
16665;SDS011;8446;50.998;6.250;2023-06-26T06:00:27;12.10;;;3.40;;
16665;SDS011;8446;50.998;6.250;2023-06-26T06:02:54;9.07;;;4.07;;
16665;SDS011;8446;50.998;6.250;2023-06-26T06:05:21;5.93;;;3.60;;
16665;SDS011;8446;50.998;6.250;2023-06-26T06:07:48;8.00;;;4.00;;
16665;SDS011;8446;50.998;6.250;2023-06-26T06:10:15;7.13;;;3.90;;
16665;SDS011;8446;50.998;6.250;2023-06-26T06:12:42;9.50;;;4.53;;
16665;SDS011;8446;50.998;6.250;2023-06-26T06:15:09;7.47;;;4.20;;
16665;SDS011;8446;50.998;6.250;2023-06-26T06:17:37;9.73;;;4.10;;
16665;SDS011;8446;50.998;6.250;2023-06-26T06:20:04;6.63;;;4.20;;
16665;SDS011;8446;50.998;6.250;2023-06-26T06:22:31;9.27;;;4.30;;
16665;SDS011;8446;50.998;6.250;2023-06-26T06:24:58;12.87;;;4.53;;
16665;SDS011;8446;50.998;6.250;2023-06-26T06:27:25;4.90;;;4.03;;
16665;SDS011;8446;50.998;6.250;2023-06-26T06:29:53;9.20;;;4.13;;
16665;SDS011;8446;50.998;6.250;2023-06-26T06:32:19;12.20;;;4.50;;
16665;SDS011;8446;50.998;6.250;2023-06-26T06:34:47;16.83;;;4.50;;
16665;SDS011;8446;50.998;6.250;2023-06-26T06:37:14;6.80;;;4.83;;
16665;SDS011;8446;50.998;6.250;2023-06-26T06:39:41;11.47;;;4.83;;
16665;SDS011;8446;50.998;6.250;2023-06-26T06:42:08;9.07;;;4.50;;
16665;SDS011;8446;50.998;6.250;2023-06-26T06:44:34;9.00;;;4.83;;
16665;SDS011;8446;50.998;6.250;2023-06-26T06:47:01;8.40;;;4.10;;
16665;SDS011;8446;50.998;6.250;2023-06-26T06:49:28;5.93;;;3.90;;
16665;SDS011;8446;50.998;6.250;2023-06-26T06:51:56;7.47;;;4.60;;
16665;SDS011;8446;50.998;6.250;2023-06-26T06:54:25;10.03;;;4.53;;
16665;SDS011;8446;50.998;6.250;2023-06-26T06:56:52;10.40;;;4.90;;
16665;SDS011;8446;50.998;6.250;2023-06-26T06:59:19;11.00;;;4.23;;
16665;SDS011;8446;50.998;6.250;2023-06-26T07:01:45;10.40;;;3.90;;
16665;SDS011;8446;50.998;6.250;2023-06-26T07:04:12;6.70;;;4.10;;
16665;SDS011;8446;50.998;6.250;2023-06-26T07:06:40;7.97;;;4.93;;
16665;SDS011;8446;50.998;6.250;2023-06-26T07:09:08;12.97;;;4.63;;
16665;SDS011;8446;50.998;6.250;2023-06-26T07:11:34;9.17;;;4.33;;
16665;SDS011;8446;50.998;6.250;2023-06-26T07:14:01;7.83;;;4.30;;
16665;SDS011;8446;50.998;6.250;2023-06-26T07:16:28;11.90;;;4.17;;
16665;SDS011;8446;50.998;6.250;2023-06-26T07:18:55;10.40;;;3.73;;
16665;SDS011;8446;50.998;6.250;2023-06-26T07:21:22;10.40;;;3.90;;
16665;SDS011;8446;50.998;6.250;2023-06-26T07:23:49;7.07;;;4.23;;
16665;SDS011;8446;50.998;6.250;2023-06-26T07:26:17;12.80;;;4.30;;
16665;SDS011;8446;50.998;6.250;2023-06-26T07:28:44;8.00;;;3.87;;
16665;SDS011;8446;50.998;6.250;2023-06-26T07:31:10;7.70;;;4.23;;
16665;SDS011;8446;50.998;6.250;2023-06-26T07:33:37;7.33;;;3.90;;
16665;SDS011;8446;50.998;6.250;2023-06-26T07:36:04;9.20;;;4.37;;
16665;SDS011;8446;50.998;6.250;2023-06-26T07:38:31;6.57;;;3.67;;
16665;SDS011;8446;50.998;6.250;2023-06-26T07:40:58;18.03;;;5.10;;
16665;SDS011;8446;50.998;6.250;2023-06-26T07:43:26;9.03;;;3.50;;
16665;SDS011;8446;50.998;6.250;2023-06-26T07:45:52;10.50;;;3.80;;
16665;SDS011;8446;50.998;6.250;2023-06-26T07:48:19;18.13;;;4.37;;
16665;SDS011;8446;50.998;6.250;2023-06-26T07:50:46;8.90;;;4.10;;
16665;SDS011;8446;50.998;6.250;2023-06-26T07:53:13;10.70;;;4.30;;
16665;SDS011;8446;50.998;6.250;2023-06-26T07:55:39;5.63;;;3.40;;
16665;SDS011;8446;50.998;6.250;2023-06-26T07:58:06;6.00;;;3.67;;
16665;SDS011;8446;50.998;6.250;2023-06-26T08:00:35;11.00;;;4.20;;
16665;SDS011;8446;50.998;6.250;2023-06-26T08:03:02;31.57;;;4.10;;
16665;SDS011;8446;50.998;6.250;2023-06-26T08:05:29;9.70;;;3.80;;
16665;SDS011;8446;50.998;6.250;2023-06-26T08:07:56;11.93;;;3.60;;
16665;SDS011;8446;50.998;6.250;2023-06-26T08:10:22;13.50;;;4.00;;
16665;SDS011;8446;50.998;6.250;2023-06-26T08:12:49;9.87;;;3.63;;
16665;SDS011;8446;50.998;6.250;2023-06-26T08:15:17;9.67;;;3.30;;
16665;SDS011;8446;50.998;6.250;2023-06-26T08:17:45;6.93;;;3.77;;
16665;SDS011;8446;50.998;6.250;2023-06-26T08:20:13;11.27;;;4.10;;
16665;SDS011;8446;50.998;6.250;2023-06-26T08:22:39;9.50;;;3.00;;
16665;SDS011;8446;50.998;6.250;2023-06-26T08:25:06;9.33;;;3.63;;
16665;SDS011;8446;50.998;6.250;2023-06-26T08:27:33;13.00;;;3.67;;
16665;SDS011;8446;50.998;6.250;2023-06-26T08:30:00;6.90;;;3.33;;
16665;SDS011;8446;50.998;6.250;2023-06-26T08:32:27;9.67;;;3.20;;
16665;SDS011;8446;50.998;6.250;2023-06-26T08:34:55;7.73;;;4.03;;
16665;SDS011;8446;50.998;6.250;2023-06-26T08:37:22;7.80;;;3.40;;
16665;SDS011;8446;50.998;6.250;2023-06-26T08:39:49;11.77;;;3.63;;
16665;SDS011;8446;50.998;6.250;2023-06-26T08:42:16;10.00;;;3.20;;
16665;SDS011;8446;50.998;6.250;2023-06-26T08:44:43;7.37;;;3.63;;
16665;SDS011;8446;50.998;6.250;2023-06-26T08:47:09;7.30;;;3.40;;
16665;SDS011;8446;50.998;6.250;2023-06-26T08:49:41;6.90;;;3.40;;
16665;SDS011;8446;50.998;6.250;2023-06-26T08:52:16;5.70;;;3.30;;
16665;SDS011;8446;50.998;6.250;2023-06-26T08:54:46;7.70;;;3.30;;
16665;SDS011;8446;50.998;6.250;2023-06-26T08:57:19;9.60;;;3.50;;
16665;SDS011;8446;50.998;6.250;2023-06-26T08:59:48;4.73;;;3.27;;
16665;SDS011;8446;50.998;6.250;2023-06-26T09:02:15;6.53;;;3.20;;
16665;SDS011;8446;50.998;6.250;2023-06-26T09:04:42;9.20;;;3.70;;
16665;SDS011;8446;50.998;6.250;2023-06-26T09:07:09;5.20;;;2.73;;
16665;SDS011;8446;50.998;6.250;2023-06-26T09:09:37;21.80;;;3.87;;
16665;SDS011;8446;50.998;6.250;2023-06-26T09:12:04;5.60;;;3.20;;
16665;SDS011;8446;50.998;6.250;2023-06-26T09:14:31;11.53;;;3.47;;
16665;SDS011;8446;50.998;6.250;2023-06-26T09:16:58;11.00;;;3.77;;
16665;SDS011;8446;50.998;6.250;2023-06-26T09:19:25;7.23;;;3.33;;
16665;SDS011;8446;50.998;6.250;2023-06-26T09:21:52;6.10;;;3.40;;
16665;SDS011;8446;50.998;6.250;2023-06-26T09:24:20;9.00;;;3.37;;
16665;SDS011;8446;50.998;6.250;2023-06-26T09:26:49;10.43;;;3.70;;
16665;SDS011;8446;50.998;6.250;2023-06-26T09:29:17;9.03;;;3.37;;
16665;SDS011;8446;50.998;6.250;2023-06-26T09:31:45;8.30;;;3.13;;
16665;SDS011;8446;50.998;6.250;2023-06-26T09:34:12;4.60;;;3.00;;
16665;SDS011;8446;50.998;6.250;2023-06-26T09:36:38;6.73;;;2.33;;
16665;SDS011;8446;50.998;6.250;2023-06-26T09:39:08;8.23;;;3.10;;
16665;SDS011;8446;50.998;6.250;2023-06-26T09:41:36;9.00;;;3.47;;
16665;SDS011;8446;50.998;6.250;2023-06-26T09:44:05;9.37;;;2.77;;
16665;SDS011;8446;50.998;6.250;2023-06-26T09:46:32;10.40;;;3.33;;
16665;SDS011;8446;50.998;6.250;2023-06-26T09:49:01;4.77;;;2.97;;
16665;SDS011;8446;50.998;6.250;2023-06-26T09:51:30;7.60;;;3.23;;
16665;SDS011;8446;50.998;6.250;2023-06-26T09:53:57;5.43;;;2.40;;
16665;SDS011;8446;50.998;6.250;2023-06-26T09:56:24;7.20;;;2.87;;
16665;SDS011;8446;50.998;6.250;2023-06-26T09:58:53;10.10;;;3.40;;
16665;SDS011;8446;50.998;6.250;2023-06-26T10:01:23;9.80;;;3.40;;
16665;SDS011;8446;50.998;6.250;2023-06-26T10:03:50;8.63;;;3.47;;
16665;SDS011;8446;50.998;6.250;2023-06-26T10:06:18;11.73;;;2.53;;
16665;SDS011;8446;50.998;6.250;2023-06-26T10:08:59;3.37;;;2.50;;
16665;SDS011;8446;50.998;6.250;2023-06-26T10:11:29;11.73;;;2.80;;
16665;SDS011;8446;50.998;6.250;2023-06-26T10:14:01;5.67;;;2.43;;
16665;SDS011;8446;50.998;6.250;2023-06-26T10:16:31;8.03;;;2.60;;
16665;SDS011;8446;50.998;6.250;2023-06-26T10:19:02;7.00;;;2.63;;
16665;SDS011;8446;50.998;6.250;2023-06-26T10:21:32;6.50;;;2.53;;
16665;SDS011;8446;50.998;6.250;2023-06-26T10:24:01;5.30;;;2.50;;
16665;SDS011;8446;50.998;6.250;2023-06-26T10:26:31;5.27;;;2.90;;
16665;SDS011;8446;50.998;6.250;2023-06-26T10:29:00;7.27;;;2.90;;
16665;SDS011;8446;50.998;6.250;2023-06-26T10:31:28;15.47;;;2.77;;
16665;SDS011;8446;50.998;6.250;2023-06-26T10:33:57;6.27;;;2.50;;
16665;SDS011;8446;50.998;6.250;2023-06-26T10:36:26;3.27;;;2.13;;
16665;SDS011;8446;50.998;6.250;2023-06-26T10:38:54;1.70;;;1.60;;
16665;SDS011;8446;50.998;6.250;2023-06-26T10:41:22;3.30;;;1.60;;
16665;SDS011;8446;50.998;6.250;2023-06-26T10:43:50;3.93;;;1.93;;
16665;SDS011;8446;50.998;6.250;2023-06-26T10:46:18;4.40;;;2.60;;
16665;SDS011;8446;50.998;6.250;2023-06-26T10:48:57;10.47;;;1.70;;
16665;SDS011;8446;50.998;6.250;2023-06-26T10:51:24;5.60;;;2.07;;
16665;SDS011;8446;50.998;6.250;2023-06-26T10:53:53;7.10;;;2.50;;
16665;SDS011;8446;50.998;6.250;2023-06-26T10:56:21;3.33;;;1.87;;
16665;SDS011;8446;50.998;6.250;2023-06-26T10:59:13;6.73;;;2.30;;
16665;SDS011;8446;50.998;6.250;2023-06-26T11:01:41;5.17;;;1.93;;
16665;SDS011;8446;50.998;6.250;2023-06-26T11:04:10;6.93;;;1.90;;
16665;SDS011;8446;50.998;6.250;2023-06-26T11:06:39;4.33;;;2.20;;
16665;SDS011;8446;50.998;6.250;2023-06-26T11:09:07;2.50;;;1.80;;
16665;SDS011;8446;50.998;6.250;2023-06-26T11:14:27;4.60;;;2.40;;
16665;SDS011;8446;50.998;6.250;2023-06-26T11:16:57;3.97;;;1.80;;
16665;SDS011;8446;50.998;6.250;2023-06-26T11:19:27;5.63;;;2.10;;
16665;SDS011;8446;50.998;6.250;2023-06-26T11:22:03;13.57;;;2.20;;
16665;SDS011;8446;50.998;6.250;2023-06-26T11:24:31;3.90;;;1.87;;
16665;SDS011;8446;50.998;6.250;2023-06-26T11:27:02;3.30;;;2.17;;
16665;SDS011;8446;50.998;6.250;2023-06-26T11:29:31;3.77;;;1.70;;
16665;SDS011;8446;50.998;6.250;2023-06-26T11:31:58;7.43;;;1.63;;
16665;SDS011;8446;50.998;6.250;2023-06-26T11:34:30;7.00;;;2.10;;
16665;SDS011;8446;50.998;6.250;2023-06-26T11:36:57;4.27;;;1.60;;
16665;SDS011;8446;50.998;6.250;2023-06-26T11:39:26;4.87;;;1.77;;
16665;SDS011;8446;50.998;6.250;2023-06-26T11:41:52;3.60;;;1.80;;
16665;SDS011;8446;50.998;6.250;2023-06-26T11:44:19;2.17;;;1.40;;
16665;SDS011;8446;50.998;6.250;2023-06-26T11:46:47;2.20;;;1.57;;
16665;SDS011;8446;50.998;6.250;2023-06-26T11:49:20;4.63;;;1.67;;
16665;SDS011;8446;50.998;6.250;2023-06-26T11:51:49;2.53;;;1.40;;
16665;SDS011;8446;50.998;6.250;2023-06-26T11:54:22;2.90;;;1.43;;
16665;SDS011;8446;50.998;6.250;2023-06-26T11:56:56;4.70;;;1.47;;
16665;SDS011;8446;50.998;6.250;2023-06-26T11:59:24;5.63;;;1.50;;
16665;SDS011;8446;50.998;6.250;2023-06-26T12:02:00;4.30;;;1.60;;
16665;SDS011;8446;50.998;6.250;2023-06-26T12:04:31;3.60;;;1.40;;
16665;SDS011;8446;50.998;6.250;2023-06-26T12:07:01;4.00;;;1.37;;
16665;SDS011;8446;50.998;6.250;2023-06-26T12:09:30;1.90;;;1.30;;
16665;SDS011;8446;50.998;6.250;2023-06-26T12:11:58;1.10;;;1.00;;
16665;SDS011;8446;50.998;6.250;2023-06-26T12:14:26;2.03;;;1.63;;
16665;SDS011;8446;50.998;6.250;2023-06-26T12:16:53;3.97;;;1.57;;
16665;SDS011;8446;50.998;6.250;2023-06-26T12:19:23;1.67;;;1.17;;
16665;SDS011;8446;50.998;6.250;2023-06-26T12:21:52;2.60;;;1.60;;
16665;SDS011;8446;50.998;6.250;2023-06-26T12:24:22;4.67;;;1.67;;
16665;SDS011;8446;50.998;6.250;2023-06-26T12:26:51;4.40;;;1.53;;
16665;SDS011;8446;50.998;6.250;2023-06-26T12:29:21;3.33;;;1.30;;
16665;SDS011;8446;50.998;6.250;2023-06-26T12:31:51;4.13;;;1.30;;
16665;SDS011;8446;50.998;6.250;2023-06-26T12:34:19;4.20;;;1.20;;
16665;SDS011;8446;50.998;6.250;2023-06-26T12:36:47;7.53;;;1.20;;
16665;SDS011;8446;50.998;6.250;2023-06-26T12:39:15;4.90;;;1.30;;
16665;SDS011;8446;50.998;6.250;2023-06-26T12:41:45;6.17;;;1.07;;
16665;SDS011;8446;50.998;6.250;2023-06-26T12:44:17;5.53;;;1.30;;
16665;SDS011;8446;50.998;6.250;2023-06-26T12:46:45;1.70;;;1.13;;
16665;SDS011;8446;50.998;6.250;2023-06-26T12:49:13;2.80;;;1.30;;
16665;SDS011;8446;50.998;6.250;2023-06-26T12:51:40;3.70;;;1.23;;
16665;SDS011;8446;50.998;6.250;2023-06-26T12:54:07;2.70;;;1.40;;
16665;SDS011;8446;50.998;6.250;2023-06-26T12:56:34;2.60;;;1.40;;
16665;SDS011;8446;50.998;6.250;2023-06-26T12:59:02;1.97;;;1.17;;
16665;SDS011;8446;50.998;6.250;2023-06-26T13:01:29;1.80;;;1.10;;
16665;SDS011;8446;50.998;6.250;2023-06-26T13:03:56;1.97;;;1.10;;
16665;SDS011;8446;50.998;6.250;2023-06-26T13:06:23;5.37;;;1.20;;
16665;SDS011;8446;50.998;6.250;2023-06-26T13:08:49;2.13;;;1.30;;
16665;SDS011;8446;50.998;6.250;2023-06-26T13:11:16;2.93;;;1.50;;
16665;SDS011;8446;50.998;6.250;2023-06-26T13:13:43;2.47;;;1.30;;
16665;SDS011;8446;50.998;6.250;2023-06-26T13:16:11;2.30;;;1.33;;
16665;SDS011;8446;50.998;6.250;2023-06-26T13:18:38;2.80;;;1.30;;
16665;SDS011;8446;50.998;6.250;2023-06-26T13:21:05;4.60;;;1.37;;
16665;SDS011;8446;50.998;6.250;2023-06-26T13:23:31;8.20;;;1.50;;
16665;SDS011;8446;50.998;6.250;2023-06-26T13:25:58;3.23;;;1.27;;
16665;SDS011;8446;50.998;6.250;2023-06-26T13:28:25;3.53;;;1.00;;
16665;SDS011;8446;50.998;6.250;2023-06-26T13:30:52;5.53;;;1.60;;
16665;SDS011;8446;50.998;6.250;2023-06-26T13:33:21;6.03;;;1.60;;
16665;SDS011;8446;50.998;6.250;2023-06-26T13:35:50;2.30;;;1.50;;
16665;SDS011;8446;50.998;6.250;2023-06-26T13:38:17;6.17;;;1.50;;
16665;SDS011;8446;50.998;6.250;2023-06-26T13:40:44;5.70;;;1.20;;
16665;SDS011;8446;50.998;6.250;2023-06-26T13:43:11;2.20;;;1.60;;
16665;SDS011;8446;50.998;6.250;2023-06-26T13:45:38;6.03;;;2.03;;
16665;SDS011;8446;50.998;6.250;2023-06-26T13:48:05;3.27;;;1.70;;
16665;SDS011;8446;50.998;6.250;2023-06-26T13:50:33;2.33;;;1.40;;
16665;SDS011;8446;50.998;6.250;2023-06-26T13:52:59;3.33;;;1.70;;
16665;SDS011;8446;50.998;6.250;2023-06-26T13:55:28;2.03;;;1.00;;
16665;SDS011;8446;50.998;6.250;2023-06-26T13:57:55;14.27;;;1.80;;
16665;SDS011;8446;50.998;6.250;2023-06-26T14:00:23;1.90;;;1.20;;
16665;SDS011;8446;50.998;6.250;2023-06-26T14:02:50;8.73;;;1.37;;
16665;SDS011;8446;50.998;6.250;2023-06-26T14:05:17;6.43;;;1.90;;
16665;SDS011;8446;50.998;6.250;2023-06-26T14:07:45;5.30;;;1.40;;
16665;SDS011;8446;50.998;6.250;2023-06-26T14:10:12;3.47;;;1.57;;
16665;SDS011;8446;50.998;6.250;2023-06-26T14:12:39;3.50;;;1.60;;
16665;SDS011;8446;50.998;6.250;2023-06-26T14:15:07;2.90;;;1.50;;
16665;SDS011;8446;50.998;6.250;2023-06-26T14:17:34;3.73;;;1.33;;
16665;SDS011;8446;50.998;6.250;2023-06-26T14:20:01;5.93;;;1.50;;
16665;SDS011;8446;50.998;6.250;2023-06-26T14:22:30;5.00;;;1.70;;
16665;SDS011;8446;50.998;6.250;2023-06-26T14:24:59;1.97;;;1.30;;
16665;SDS011;8446;50.998;6.250;2023-06-26T14:27:26;4.33;;;1.50;;
16665;SDS011;8446;50.998;6.250;2023-06-26T14:29:52;4.00;;;1.67;;
16665;SDS011;8446;50.998;6.250;2023-06-26T14:32:19;10.23;;;2.07;;
16665;SDS011;8446;50.998;6.250;2023-06-26T14:34:46;1.57;;;1.30;;
16665;SDS011;8446;50.998;6.250;2023-06-26T14:37:12;6.10;;;1.30;;
16665;SDS011;8446;50.998;6.250;2023-06-26T14:39:39;1.77;;;1.37;;
16665;SDS011;8446;50.998;6.250;2023-06-26T14:42:08;2.90;;;1.50;;
16665;SDS011;8446;50.998;6.250;2023-06-26T14:44:35;4.40;;;1.60;;
16665;SDS011;8446;50.998;6.250;2023-06-26T14:47:02;3.33;;;1.00;;
16665;SDS011;8446;50.998;6.250;2023-06-26T14:49:29;1.87;;;1.30;;
16665;SDS011;8446;50.998;6.250;2023-06-26T14:51:56;7.57;;;1.50;;
16665;SDS011;8446;50.998;6.250;2023-06-26T14:54:23;4.83;;;1.67;;
16665;SDS011;8446;50.998;6.250;2023-06-26T14:56:50;6.63;;;1.60;;
16665;SDS011;8446;50.998;6.250;2023-06-26T14:59:19;2.03;;;1.10;;
16665;SDS011;8446;50.998;6.250;2023-06-26T15:01:47;1.93;;;1.70;;
16665;SDS011;8446;50.998;6.250;2023-06-26T15:04:14;4.70;;;1.23;;